sensor_id;sensor_type;location;lat;lon;timestamp;P1;durP1;ratioP1;P2;durP2;ratioP2
21894;SDS011;11112;51.270;7.224;2023-03-01T00:01:45;18.42;;;11.38;;
21894;SDS011;11112;51.270;7.224;2023-03-01T00:04:12;17.35;;;11.15;;
21894;SDS011;11112;51.270;7.224;2023-03-01T00:06:42;17.42;;;10.70;;
21894;SDS011;11112;51.270;7.224;2023-03-01T00:09:11;18.23;;;10.27;;
21894;SDS011;11112;51.270;7.224;2023-03-01T00:11:39;18.63;;;10.68;;
21894;SDS011;11112;51.270;7.224;2023-03-01T00:14:09;17.20;;;10.18;;
21894;SDS011;11112;51.270;7.224;2023-03-01T00:16:37;16.38;;;10.30;;
21894;SDS011;11112;51.270;7.224;2023-03-01T00:19:16;19.85;;;11.15;;
21894;SDS011;11112;51.270;7.224;2023-03-01T00:21:46;18.52;;;10.77;;
21894;SDS011;11112;51.270;7.224;2023-03-01T00:24:17;15.90;;;9.93;;
21894;SDS011;11112;51.270;7.224;2023-03-01T00:26:45;16.75;;;11.00;;
21894;SDS011;11112;51.270;7.224;2023-03-01T00:29:14;17.27;;;10.80;;
21894;SDS011;11112;51.270;7.224;2023-03-01T00:31:41;16.42;;;10.48;;
21894;SDS011;11112;51.270;7.224;2023-03-01T00:34:11;16.23;;;10.60;;
21894;SDS011;11112;51.270;7.224;2023-03-01T00:36:39;18.15;;;10.48;;
21894;SDS011;11112;51.270;7.224;2023-03-01T00:39:10;17.05;;;10.40;;
21894;SDS011;11112;51.270;7.224;2023-03-01T00:41:40;16.88;;;10.30;;
21894;SDS011;11112;51.270;7.224;2023-03-01T00:44:07;17.60;;;11.00;;
21894;SDS011;11112;51.270;7.224;2023-03-01T00:46:38;19.08;;;11.20;;
21894;SDS011;11112;51.270;7.224;2023-03-01T00:49:05;20.83;;;10.60;;
21894;SDS011;11112;51.270;7.224;2023-03-01T00:51:33;16.02;;;10.70;;
21894;SDS011;11112;51.270;7.224;2023-03-01T00:54:01;17.80;;;11.23;;
21894;SDS011;11112;51.270;7.224;2023-03-01T00:56:30;15.80;;;10.52;;
21894;SDS011;11112;51.270;7.224;2023-03-01T00:58:57;16.38;;;10.13;;
21894;SDS011;11112;51.270;7.224;2023-03-01T01:01:27;17.10;;;10.73;;
21894;SDS011;11112;51.270;7.224;2023-03-01T01:03:57;16.17;;;9.95;;
21894;SDS011;11112;51.270;7.224;2023-03-01T01:06:30;18.42;;;11.00;;
21894;SDS011;11112;51.270;7.224;2023-03-01T01:09:00;18.52;;;10.40;;
21894;SDS011;11112;51.270;7.224;2023-03-01T01:11:30;17.05;;;10.40;;
21894;SDS011;11112;51.270;7.224;2023-03-01T01:13:57;19.25;;;11.00;;
21894;SDS011;11112;51.270;7.224;2023-03-01T01:16:27;17.58;;;11.00;;
21894;SDS011;11112;51.270;7.224;2023-03-01T01:18:56;17.83;;;10.57;;
21894;SDS011;11112;51.270;7.224;2023-03-01T01:21:24;14.80;;;10.50;;
21894;SDS011;11112;51.270;7.224;2023-03-01T01:23:54;18.23;;;10.77;;
21894;SDS011;11112;51.270;7.224;2023-03-01T01:26:27;15.07;;;9.90;;
21894;SDS011;11112;51.270;7.224;2023-03-01T01:29:02;16.92;;;10.43;;
21894;SDS011;11112;51.270;7.224;2023-03-01T01:31:34;19.42;;;10.40;;
21894;SDS011;11112;51.270;7.224;2023-03-01T01:34:06;18.05;;;10.73;;
21894;SDS011;11112;51.270;7.224;2023-03-01T01:36:34;17.85;;;10.63;;
21894;SDS011;11112;51.270;7.224;2023-03-01T01:39:02;15.45;;;10.15;;
21894;SDS011;11112;51.270;7.224;2023-03-01T01:41:32;16.60;;;10.48;;
21894;SDS011;11112;51.270;7.224;2023-03-01T01:44:15;19.38;;;11.20;;
21894;SDS011;11112;51.270;7.224;2023-03-01T01:46:49;17.63;;;11.43;;
21894;SDS011;11112;51.270;7.224;2023-03-01T01:49:24;23.98;;;11.30;;
21894;SDS011;11112;51.270;7.224;2023-03-01T01:52:01;17.65;;;10.68;;
21894;SDS011;11112;51.270;7.224;2023-03-01T01:54:38;18.55;;;11.30;;
21894;SDS011;11112;51.270;7.224;2023-03-01T01:57:21;17.85;;;10.82;;
21894;SDS011;11112;51.270;7.224;2023-03-01T01:59:53;19.27;;;11.25;;
21894;SDS011;11112;51.270;7.224;2023-03-01T02:02:25;17.17;;;11.23;;
21894;SDS011;11112;51.270;7.224;2023-03-01T02:04:58;16.60;;;10.40;;
21894;SDS011;11112;51.270;7.224;2023-03-01T02:07:35;16.63;;;10.13;;
21894;SDS011;11112;51.270;7.224;2023-03-01T02:10:09;16.65;;;10.27;;
21894;SDS011;11112;51.270;7.224;2023-03-01T02:12:37;19.10;;;10.00;;
21894;SDS011;11112;51.270;7.224;2023-03-01T02:15:06;17.05;;;9.75;;
21894;SDS011;11112;51.270;7.224;2023-03-01T02:17:35;17.92;;;9.77;;
21894;SDS011;11112;51.270;7.224;2023-03-01T02:20:10;16.10;;;10.80;;
21894;SDS011;11112;51.270;7.224;2023-03-01T02:22:45;17.98;;;10.63;;
21894;SDS011;11112;51.270;7.224;2023-03-01T02:25:22;16.63;;;11.18;;
21894;SDS011;11112;51.270;7.224;2023-03-01T02:28:00;18.42;;;11.02;;
21894;SDS011;11112;51.270;7.224;2023-03-01T02:30:39;18.60;;;11.50;;
21894;SDS011;11112;51.270;7.224;2023-03-01T02:33:27;19.10;;;11.57;;
21894;SDS011;11112;51.270;7.224;2023-03-01T02:35:57;18.77;;;11.35;;
21894;SDS011;11112;51.270;7.224;2023-03-01T02:38:27;17.13;;;11.60;;
21894;SDS011;11112;51.270;7.224;2023-03-01T02:40:58;18.75;;;11.18;;
21894;SDS011;11112;51.270;7.224;2023-03-01T02:43:31;16.67;;;10.40;;
21894;SDS011;11112;51.270;7.224;2023-03-01T02:46:07;20.40;;;10.70;;
21894;SDS011;11112;51.270;7.224;2023-03-01T02:48:43;16.27;;;10.68;;
21894;SDS011;11112;51.270;7.224;2023-03-01T02:51:21;15.02;;;9.98;;
21894;SDS011;11112;51.270;7.224;2023-03-01T02:54:01;17.35;;;10.30;;
21894;SDS011;11112;51.270;7.224;2023-03-01T02:56:40;14.70;;;10.05;;
21894;SDS011;11112;51.270;7.224;2023-03-01T02:59:13;16.80;;;9.90;;
21894;SDS011;11112;51.270;7.224;2023-03-01T03:01:48;15.55;;;10.13;;
21894;SDS011;11112;51.270;7.224;2023-03-01T03:04:18;14.70;;;9.40;;
21894;SDS011;11112;51.270;7.224;2023-03-01T03:06:46;16.20;;;10.07;;
21894;SDS011;11112;51.270;7.224;2023-03-01T03:09:17;14.23;;;9.55;;
21894;SDS011;11112;51.270;7.224;2023-03-01T03:11:46;15.23;;;10.00;;
21894;SDS011;11112;51.270;7.224;2023-03-01T03:14:17;15.60;;;9.52;;
21894;SDS011;11112;51.270;7.224;2023-03-01T03:16:47;18.98;;;10.88;;
21894;SDS011;11112;51.270;7.224;2023-03-01T03:19:16;17.65;;;10.63;;
21894;SDS011;11112;51.270;7.224;2023-03-01T03:21:44;18.83;;;11.38;;
21894;SDS011;11112;51.270;7.224;2023-03-01T03:24:13;16.92;;;11.27;;
21894;SDS011;11112;51.270;7.224;2023-03-01T03:26:42;17.65;;;11.13;;
21894;SDS011;11112;51.270;7.224;2023-03-01T03:29:10;17.00;;;11.13;;
21894;SDS011;11112;51.270;7.224;2023-03-01T03:31:39;21.08;;;12.02;;
21894;SDS011;11112;51.270;7.224;2023-03-01T03:34:07;18.85;;;12.05;;
21894;SDS011;11112;51.270;7.224;2023-03-01T03:36:42;24.02;;;13.30;;
21894;SDS011;11112;51.270;7.224;2023-03-01T03:39:10;21.13;;;11.68;;
21894;SDS011;11112;51.270;7.224;2023-03-01T03:41:37;18.27;;;11.57;;
21894;SDS011;11112;51.270;7.224;2023-03-01T03:44:07;16.58;;;11.30;;
21894;SDS011;11112;51.270;7.224;2023-03-01T03:46:36;18.42;;;11.85;;
21894;SDS011;11112;51.270;7.224;2023-03-01T03:49:04;18.38;;;11.60;;
21894;SDS011;11112;51.270;7.224;2023-03-01T03:51:33;21.85;;;12.32;;
21894;SDS011;11112;51.270;7.224;2023-03-01T03:54:00;20.35;;;11.85;;
21894;SDS011;11112;51.270;7.224;2023-03-01T03:56:27;18.52;;;11.73;;
21894;SDS011;11112;51.270;7.224;2023-03-01T03:58:55;24.30;;;12.40;;
21894;SDS011;11112;51.270;7.224;2023-03-01T04:01:22;20.10;;;12.55;;
21894;SDS011;11112;51.270;7.224;2023-03-01T04:03:50;23.60;;;13.00;;
21894;SDS011;11112;51.270;7.224;2023-03-01T04:06:19;18.95;;;13.05;;
21894;SDS011;11112;51.270;7.224;2023-03-01T04:08:48;19.95;;;12.70;;
21894;SDS011;11112;51.270;7.224;2023-03-01T04:11:23;20.05;;;12.65;;
21894;SDS011;11112;51.270;7.224;2023-03-01T04:13:52;22.15;;;13.07;;
21894;SDS011;11112;51.270;7.224;2023-03-01T04:16:22;27.08;;;13.00;;
21894;SDS011;11112;51.270;7.224;2023-03-01T04:18:49;19.27;;;12.27;;
21894;SDS011;11112;51.270;7.224;2023-03-01T04:21:18;19.25;;;12.02;;
21894;SDS011;11112;51.270;7.224;2023-03-01T04:23:48;20.50;;;13.32;;
21894;SDS011;11112;51.270;7.224;2023-03-01T04:26:17;20.70;;;12.32;;
21894;SDS011;11112;51.270;7.224;2023-03-01T04:28:46;20.80;;;12.38;;
21894;SDS011;11112;51.270;7.224;2023-03-01T04:31:16;22.38;;;12.80;;
21894;SDS011;11112;51.270;7.224;2023-03-01T04:33:47;21.65;;;13.07;;
21894;SDS011;11112;51.270;7.224;2023-03-01T04:36:16;19.52;;;11.80;;
21894;SDS011;11112;51.270;7.224;2023-03-01T04:38:48;23.02;;;12.48;;
21894;SDS011;11112;51.270;7.224;2023-03-01T04:41:19;21.08;;;13.18;;
21894;SDS011;11112;51.270;7.224;2023-03-01T04:43:48;22.52;;;12.75;;
21894;SDS011;11112;51.270;7.224;2023-03-01T04:46:19;23.23;;;12.85;;
21894;SDS011;11112;51.270;7.224;2023-03-01T04:48:52;19.35;;;12.90;;
21894;SDS011;11112;51.270;7.224;2023-03-01T04:51:20;20.42;;;13.40;;
21894;SDS011;11112;51.270;7.224;2023-03-01T04:53:48;23.77;;;13.85;;
21894;SDS011;11112;51.270;7.224;2023-03-01T04:56:17;24.20;;;14.27;;
21894;SDS011;11112;51.270;7.224;2023-03-01T04:58:44;24.25;;;15.55;;
21894;SDS011;11112;51.270;7.224;2023-03-01T05:01:13;24.35;;;15.50;;
21894;SDS011;11112;51.270;7.224;2023-03-01T05:03:47;24.70;;;15.38;;
21894;SDS011;11112;51.270;7.224;2023-03-01T05:06:16;23.83;;;15.18;;
21894;SDS011;11112;51.270;7.224;2023-03-01T05:08:46;23.98;;;14.13;;
21894;SDS011;11112;51.270;7.224;2023-03-01T05:11:15;23.83;;;13.85;;
21894;SDS011;11112;51.270;7.224;2023-03-01T05:13:45;22.08;;;14.02;;
21894;SDS011;11112;51.270;7.224;2023-03-01T05:16:19;19.33;;;12.90;;
21894;SDS011;11112;51.270;7.224;2023-03-01T05:18:47;19.13;;;13.00;;
21894;SDS011;11112;51.270;7.224;2023-03-01T05:21:16;21.13;;;13.73;;
21894;SDS011;11112;51.270;7.224;2023-03-01T05:23:44;19.92;;;12.77;;
21894;SDS011;11112;51.270;7.224;2023-03-01T05:26:16;25.85;;;12.98;;
21894;SDS011;11112;51.270;7.224;2023-03-01T05:28:46;21.55;;;14.35;;
21894;SDS011;11112;51.270;7.224;2023-03-01T05:31:14;25.85;;;14.52;;
21894;SDS011;11112;51.270;7.224;2023-03-01T05:33:44;21.92;;;14.18;;
21894;SDS011;11112;51.270;7.224;2023-03-01T05:36:11;22.42;;;14.20;;
21894;SDS011;11112;51.270;7.224;2023-03-01T05:38:39;23.23;;;14.50;;
21894;SDS011;11112;51.270;7.224;2023-03-01T05:41:14;23.50;;;14.88;;
21894;SDS011;11112;51.270;7.224;2023-03-01T05:43:42;25.77;;;14.85;;
21894;SDS011;11112;51.270;7.224;2023-03-01T05:46:09;29.45;;;16.85;;
21894;SDS011;11112;51.270;7.224;2023-03-01T05:48:38;25.50;;;15.95;;
21894;SDS011;11112;51.270;7.224;2023-03-01T05:51:05;24.40;;;15.75;;
21894;SDS011;11112;51.270;7.224;2023-03-01T05:53:33;26.02;;;16.10;;
21894;SDS011;11112;51.270;7.224;2023-03-01T05:56:02;27.23;;;15.35;;
21894;SDS011;11112;51.270;7.224;2023-03-01T05:58:47;31.17;;;15.77;;
21894;SDS011;11112;51.270;7.224;2023-03-01T06:01:18;25.88;;;15.40;;
21894;SDS011;11112;51.270;7.224;2023-03-01T06:03:47;22.00;;;14.23;;
21894;SDS011;11112;51.270;7.224;2023-03-01T06:06:15;23.58;;;14.20;;
21894;SDS011;11112;51.270;7.224;2023-03-01T06:09:02;27.15;;;15.50;;
21894;SDS011;11112;51.270;7.224;2023-03-01T06:11:34;23.13;;;14.13;;
21894;SDS011;11112;51.270;7.224;2023-03-01T06:14:05;26.45;;;15.82;;
21894;SDS011;11112;51.270;7.224;2023-03-01T06:16:35;27.13;;;15.35;;
21894;SDS011;11112;51.270;7.224;2023-03-01T06:19:03;24.60;;;15.15;;
21894;SDS011;11112;51.270;7.224;2023-03-01T06:21:30;24.30;;;15.23;;
21894;SDS011;11112;51.270;7.224;2023-03-01T06:23:58;30.00;;;15.73;;
21894;SDS011;11112;51.270;7.224;2023-03-01T06:26:27;25.92;;;15.57;;
21894;SDS011;11112;51.270;7.224;2023-03-01T06:28:57;27.52;;;15.20;;
21894;SDS011;11112;51.270;7.224;2023-03-01T06:31:25;24.30;;;15.18;;
21894;SDS011;11112;51.270;7.224;2023-03-01T06:33:54;25.35;;;15.70;;
21894;SDS011;11112;51.270;7.224;2023-03-01T06:36:22;25.42;;;14.50;;
21894;SDS011;11112;51.270;7.224;2023-03-01T06:38:49;28.50;;;15.77;;
21894;SDS011;11112;51.270;7.224;2023-03-01T06:41:19;25.13;;;15.55;;
21894;SDS011;11112;51.270;7.224;2023-03-01T06:43:48;28.50;;;15.88;;
21894;SDS011;11112;51.270;7.224;2023-03-01T06:46:19;29.10;;;16.60;;
21894;SDS011;11112;51.270;7.224;2023-03-01T06:48:47;27.70;;;16.98;;
21894;SDS011;11112;51.270;7.224;2023-03-01T06:51:15;26.98;;;16.75;;
21894;SDS011;11112;51.270;7.224;2023-03-01T06:53:45;31.73;;;17.95;;
21894;SDS011;11112;51.270;7.224;2023-03-01T06:56:13;32.03;;;18.88;;
21894;SDS011;11112;51.270;7.224;2023-03-01T06:58:40;31.13;;;18.75;;
21894;SDS011;11112;51.270;7.224;2023-03-01T07:01:10;30.70;;;18.77;;
21894;SDS011;11112;51.270;7.224;2023-03-01T07:03:39;29.63;;;17.95;;
21894;SDS011;11112;51.270;7.224;2023-03-01T07:06:09;30.83;;;17.65;;
21894;SDS011;11112;51.270;7.224;2023-03-01T07:08:37;29.73;;;16.63;;
21894;SDS011;11112;51.270;7.224;2023-03-01T07:11:06;28.23;;;15.50;;
21894;SDS011;11112;51.270;7.224;2023-03-01T07:13:34;26.92;;;15.85;;
21894;SDS011;11112;51.270;7.224;2023-03-01T07:16:02;25.40;;;16.05;;
21894;SDS011;11112;51.270;7.224;2023-03-01T07:18:31;28.23;;;16.33;;
21894;SDS011;11112;51.270;7.224;2023-03-01T07:21:04;26.73;;;16.38;;
21894;SDS011;11112;51.270;7.224;2023-03-01T07:23:34;32.03;;;17.63;;
21894;SDS011;11112;51.270;7.224;2023-03-01T07:26:01;29.15;;;17.48;;
21894;SDS011;11112;51.270;7.224;2023-03-01T07:28:29;30.13;;;17.70;;
21894;SDS011;11112;51.270;7.224;2023-03-01T07:31:01;32.60;;;17.67;;
21894;SDS011;11112;51.270;7.224;2023-03-01T07:33:29;27.50;;;16.70;;
21894;SDS011;11112;51.270;7.224;2023-03-01T07:35:56;27.70;;;17.20;;
21894;SDS011;11112;51.270;7.224;2023-03-01T07:38:28;30.98;;;17.80;;
21894;SDS011;11112;51.270;7.224;2023-03-01T07:40:58;32.70;;;18.02;;
21894;SDS011;11112;51.270;7.224;2023-03-01T07:43:26;30.25;;;17.02;;
21894;SDS011;11112;51.270;7.224;2023-03-01T07:45:57;28.35;;;17.45;;
21894;SDS011;11112;51.270;7.224;2023-03-01T07:48:26;31.52;;;17.02;;
21894;SDS011;11112;51.270;7.224;2023-03-01T07:50:57;28.83;;;16.67;;
21894;SDS011;11112;51.270;7.224;2023-03-01T07:53:25;30.00;;;16.50;;
21894;SDS011;11112;51.270;7.224;2023-03-01T07:56:01;27.33;;;16.25;;
21894;SDS011;11112;51.270;7.224;2023-03-01T07:58:30;27.05;;;15.80;;
21894;SDS011;11112;51.270;7.224;2023-03-01T08:01:01;27.77;;;16.33;;
21894;SDS011;11112;51.270;7.224;2023-03-01T08:03:28;27.00;;;15.70;;
21894;SDS011;11112;51.270;7.224;2023-03-01T08:05:58;30.58;;;17.27;;
21894;SDS011;11112;51.270;7.224;2023-03-01T08:08:26;29.35;;;16.60;;
21894;SDS011;11112;51.270;7.224;2023-03-01T08:11:02;28.48;;;16.48;;
21894;SDS011;11112;51.270;7.224;2023-03-01T08:13:34;24.08;;;16.05;;
21894;SDS011;11112;51.270;7.224;2023-03-01T08:16:04;26.98;;;15.80;;
21894;SDS011;11112;51.270;7.224;2023-03-01T08:18:36;27.15;;;16.33;;
21894;SDS011;11112;51.270;7.224;2023-03-01T08:21:05;25.45;;;16.65;;
21894;SDS011;11112;51.270;7.224;2023-03-01T08:23:35;26.00;;;15.85;;
21894;SDS011;11112;51.270;7.224;2023-03-01T08:26:07;25.35;;;15.75;;
21894;SDS011;11112;51.270;7.224;2023-03-01T08:28:37;27.45;;;15.88;;
21894;SDS011;11112;51.270;7.224;2023-03-01T08:31:12;26.15;;;15.90;;
21894;SDS011;11112;51.270;7.224;2023-03-01T08:33:42;23.80;;;15.52;;
21894;SDS011;11112;51.270;7.224;2023-03-01T08:36:15;22.50;;;15.30;;
21894;SDS011;11112;51.270;7.224;2023-03-01T08:38:44;25.50;;;15.32;;
21894;SDS011;11112;51.270;7.224;2023-03-01T08:41:13;23.70;;;15.75;;
21894;SDS011;11112;51.270;7.224;2023-03-01T08:43:40;25.00;;;15.25;;
21894;SDS011;11112;51.270;7.224;2023-03-01T08:46:09;24.67;;;15.98;;
21894;SDS011;11112;51.270;7.224;2023-03-01T08:48:48;27.48;;;15.38;;
21894;SDS011;11112;51.270;7.224;2023-03-01T08:52:08;23.55;;;15.13;;
21894;SDS011;11112;51.270;7.224;2023-03-01T08:55:32;25.23;;;16.20;;
21894;SDS011;11112;51.270;7.224;2023-03-01T08:58:03;25.95;;;15.98;;
21894;SDS011;11112;51.270;7.224;2023-03-01T09:00:31;24.40;;;15.52;;
21894;SDS011;11112;51.270;7.224;2023-03-01T09:02:59;23.75;;;15.48;;
21894;SDS011;11112;51.270;7.224;2023-03-01T09:05:27;27.00;;;15.95;;
21894;SDS011;11112;51.270;7.224;2023-03-01T09:07:56;24.15;;;15.13;;
21894;SDS011;11112;51.270;7.224;2023-03-01T09:10:25;23.48;;;14.15;;
21894;SDS011;11112;51.270;7.224;2023-03-01T09:12:53;24.38;;;14.48;;
21894;SDS011;11112;51.270;7.224;2023-03-01T09:15:23;28.58;;;15.05;;
21894;SDS011;11112;51.270;7.224;2023-03-01T09:17:50;24.85;;;14.48;;
21894;SDS011;11112;51.270;7.224;2023-03-01T09:20:18;22.90;;;13.35;;
21894;SDS011;11112;51.270;7.224;2023-03-01T09:22:46;24.55;;;13.95;;
21894;SDS011;11112;51.270;7.224;2023-03-01T09:25:13;21.88;;;13.63;;
21894;SDS011;11112;51.270;7.224;2023-03-01T09:27:41;22.08;;;13.05;;
21894;SDS011;11112;51.270;7.224;2023-03-01T09:30:09;21.35;;;13.52;;
21894;SDS011;11112;51.270;7.224;2023-03-01T09:32:40;24.05;;;13.23;;
21894;SDS011;11112;51.270;7.224;2023-03-01T09:35:08;20.63;;;12.82;;
21894;SDS011;11112;51.270;7.224;2023-03-01T09:37:39;21.45;;;13.25;;
21894;SDS011;11112;51.270;7.224;2023-03-01T09:40:09;20.95;;;13.02;;
21894;SDS011;11112;51.270;7.224;2023-03-01T09:42:46;22.08;;;12.90;;
21894;SDS011;11112;51.270;7.224;2023-03-01T09:45:26;24.23;;;13.63;;
21894;SDS011;11112;51.270;7.224;2023-03-01T09:47:58;24.92;;;13.55;;
21894;SDS011;11112;51.270;7.224;2023-03-01T09:50:30;22.55;;;13.20;;
21894;SDS011;11112;51.270;7.224;2023-03-01T09:53:02;20.55;;;13.27;;
21894;SDS011;11112;51.270;7.224;2023-03-01T09:58:12;21.00;;;13.38;;
21894;SDS011;11112;51.270;7.224;2023-03-01T10:01:20;20.88;;;12.85;;
21894;SDS011;11112;51.270;7.224;2023-03-01T10:07:07;21.85;;;12.75;;
21894;SDS011;11112;51.270;7.224;2023-03-01T10:09:59;21.50;;;13.05;;
21894;SDS011;11112;51.270;7.224;2023-03-01T10:13:02;20.77;;;13.18;;
21894;SDS011;11112;51.270;7.224;2023-03-01T10:16:03;19.80;;;12.20;;
21894;SDS011;11112;51.270;7.224;2023-03-01T10:18:43;21.42;;;13.32;;
21894;SDS011;11112;51.270;7.224;2023-03-01T10:21:37;21.90;;;13.38;;
21894;SDS011;11112;51.270;7.224;2023-03-01T10:24:11;22.50;;;13.30;;
21894;SDS011;11112;51.270;7.224;2023-03-01T10:26:44;22.40;;;13.25;;
21894;SDS011;11112;51.270;7.224;2023-03-01T10:29:29;19.53;;;12.77;;
21894;SDS011;11112;51.270;7.224;2023-03-01T10:32:38;19.48;;;12.93;;
21894;SDS011;11112;51.270;7.224;2023-03-01T10:35:48;23.35;;;12.68;;
21894;SDS011;11112;51.270;7.224;2023-03-01T10:38:18;21.63;;;13.07;;
21894;SDS011;11112;51.270;7.224;2023-03-01T10:40:50;20.38;;;12.15;;
21894;SDS011;11112;51.270;7.224;2023-03-01T10:43:22;21.77;;;13.02;;
21894;SDS011;11112;51.270;7.224;2023-03-01T10:45:53;22.48;;;12.65;;
21894;SDS011;11112;51.270;7.224;2023-03-01T10:48:21;19.83;;;12.40;;
21894;SDS011;11112;51.270;7.224;2023-03-01T10:51:04;18.70;;;12.60;;
21894;SDS011;11112;51.270;7.224;2023-03-01T10:53:35;19.25;;;11.77;;
21894;SDS011;11112;51.270;7.224;2023-03-01T10:56:05;22.17;;;12.57;;
21894;SDS011;11112;51.270;7.224;2023-03-01T10:58:35;22.27;;;12.35;;
21894;SDS011;11112;51.270;7.224;2023-03-01T11:01:26;19.45;;;12.10;;
21894;SDS011;11112;51.270;7.224;2023-03-01T11:04:10;19.08;;;11.65;;
21894;SDS011;11112;51.270;7.224;2023-03-01T11:06:40;19.83;;;11.75;;
21894;SDS011;11112;51.270;7.224;2023-03-01T11:09:29;18.92;;;11.25;;
21894;SDS011;11112;51.270;7.224;2023-03-01T11:12:03;16.98;;;11.25;;
21894;SDS011;11112;51.270;7.224;2023-03-01T11:14:46;17.85;;;11.40;;
21894;SDS011;11112;51.270;7.224;2023-03-01T11:17:15;20.15;;;11.38;;
21894;SDS011;11112;51.270;7.224;2023-03-01T11:22:39;19.30;;;10.63;;
21894;SDS011;11112;51.270;7.224;2023-03-01T11:25:42;15.85;;;10.25;;
21894;SDS011;11112;51.270;7.224;2023-03-01T11:28:14;19.70;;;11.40;;
21894;SDS011;11112;51.270;7.224;2023-03-01T11:30:47;18.73;;;11.00;;
21894;SDS011;11112;51.270;7.224;2023-03-01T11:33:49;19.55;;;11.40;;
21894;SDS011;11112;51.270;7.224;2023-03-01T11:37:11;17.40;;;11.18;;
21894;SDS011;11112;51.270;7.224;2023-03-01T11:40:16;19.90;;;10.50;;
21894;SDS011;11112;51.270;7.224;2023-03-01T11:43:17;20.25;;;10.88;;
21894;SDS011;11112;51.270;7.224;2023-03-01T11:49:54;17.80;;;10.20;;
21894;SDS011;11112;51.270;7.224;2023-03-01T11:52:42;17.85;;;11.02;;
21894;SDS011;11112;51.270;7.224;2023-03-01T11:55:48;17.63;;;10.77;;
21894;SDS011;11112;51.270;7.224;2023-03-01T11:58:37;15.07;;;10.45;;
21894;SDS011;11112;51.270;7.224;2023-03-01T12:01:29;17.55;;;10.63;;
21894;SDS011;11112;51.270;7.224;2023-03-01T12:04:28;15.18;;;10.55;;
21894;SDS011;11112;51.270;7.224;2023-03-01T12:07:20;15.70;;;10.25;;
21894;SDS011;11112;51.270;7.224;2023-03-01T12:10:02;15.40;;;10.02;;
21894;SDS011;11112;51.270;7.224;2023-03-01T12:13:10;15.73;;;10.13;;
21894;SDS011;11112;51.270;7.224;2023-03-01T12:16:06;15.48;;;9.65;;
21894;SDS011;11112;51.270;7.224;2023-03-01T12:18:56;17.65;;;10.15;;
21894;SDS011;11112;51.270;7.224;2023-03-01T12:21:46;15.32;;;9.70;;
21894;SDS011;11112;51.270;7.224;2023-03-01T12:24:36;16.02;;;10.00;;
21894;SDS011;11112;51.270;7.224;2023-03-01T12:27:28;16.13;;;9.93;;
21894;SDS011;11112;51.270;7.224;2023-03-01T12:30:32;15.18;;;9.48;;
21894;SDS011;11112;51.270;7.224;2023-03-01T12:36:01;18.90;;;10.00;;
21894;SDS011;11112;51.270;7.224;2023-03-01T12:38:48;17.13;;;9.88;;
21894;SDS011;11112;51.270;7.224;2023-03-01T12:41:26;16.45;;;10.00;;
21894;SDS011;11112;51.270;7.224;2023-03-01T12:44:15;16.55;;;9.52;;
21894;SDS011;11112;51.270;7.224;2023-03-01T12:47:10;16.33;;;9.80;;
21894;SDS011;11112;51.270;7.224;2023-03-01T12:49:55;18.38;;;10.45;;
21894;SDS011;11112;51.270;7.224;2023-03-01T12:52:30;17.95;;;10.10;;
21894;SDS011;11112;51.270;7.224;2023-03-01T12:55:06;19.20;;;10.73;;
21894;SDS011;11112;51.270;7.224;2023-03-01T12:57:49;16.38;;;10.00;;
21894;SDS011;11112;51.270;7.224;2023-03-01T13:00:27;17.38;;;10.68;;
21894;SDS011;11112;51.270;7.224;2023-03-01T13:03:09;15.55;;;10.20;;
21894;SDS011;11112;51.270;7.224;2023-03-01T13:06:00;16.63;;;9.90;;
21894;SDS011;11112;51.270;7.224;2023-03-01T13:08:36;18.73;;;9.77;;
21894;SDS011;11112;51.270;7.224;2023-03-01T13:11:18;17.83;;;9.90;;
21894;SDS011;11112;51.270;7.224;2023-03-01T13:13:48;20.90;;;10.32;;
21894;SDS011;11112;51.270;7.224;2023-03-01T13:16:20;15.80;;;9.95;;
21894;SDS011;11112;51.270;7.224;2023-03-01T13:19:09;15.00;;;10.15;;
21894;SDS011;11112;51.270;7.224;2023-03-01T13:21:46;17.27;;;9.98;;
21894;SDS011;11112;51.270;7.224;2023-03-01T13:24:25;17.98;;;10.95;;
21894;SDS011;11112;51.270;7.224;2023-03-01T13:27:11;16.30;;;10.30;;
21894;SDS011;11112;51.270;7.224;2023-03-01T13:29:55;17.60;;;10.48;;
21894;SDS011;11112;51.270;7.224;2023-03-01T13:32:28;17.80;;;10.23;;
21894;SDS011;11112;51.270;7.224;2023-03-01T13:34:58;17.98;;;9.88;;
21894;SDS011;11112;51.270;7.224;2023-03-01T13:37:34;20.35;;;9.90;;
21894;SDS011;11112;51.270;7.224;2023-03-01T13:40:05;15.60;;;9.43;;
21894;SDS011;11112;51.270;7.224;2023-03-01T13:43:26;18.23;;;10.25;;
21894;SDS011;11112;51.270;7.224;2023-03-01T13:45:58;16.05;;;9.38;;
21894;SDS011;11112;51.270;7.224;2023-03-01T13:48:27;20.05;;;10.15;;
21894;SDS011;11112;51.270;7.224;2023-03-01T13:50:59;16.08;;;10.35;;
21894;SDS011;11112;51.270;7.224;2023-03-01T13:53:33;15.57;;;10.07;;
21894;SDS011;11112;51.270;7.224;2023-03-01T13:56:06;14.68;;;9.35;;
21894;SDS011;11112;51.270;7.224;2023-03-01T14:01:27;17.70;;;9.65;;
21894;SDS011;11112;51.270;7.224;2023-03-01T14:03:57;16.80;;;9.45;;
21894;SDS011;11112;51.270;7.224;2023-03-01T14:06:26;18.98;;;9.32;;
21894;SDS011;11112;51.270;7.224;2023-03-01T14:09:05;19.13;;;9.98;;
21894;SDS011;11112;51.270;7.224;2023-03-01T14:14:53;14.55;;;9.55;;
21894;SDS011;11112;51.270;7.224;2023-03-01T14:17:30;15.00;;;9.25;;
21894;SDS011;11112;51.270;7.224;2023-03-01T14:20:18;16.55;;;9.43;;
21894;SDS011;11112;51.270;7.224;2023-03-01T14:22:48;16.98;;;9.30;;
21894;SDS011;11112;51.270;7.224;2023-03-01T14:25:22;15.40;;;9.20;;
21894;SDS011;11112;51.270;7.224;2023-03-01T14:27:56;19.88;;;9.50;;
21894;SDS011;11112;51.270;7.224;2023-03-01T14:30:31;18.02;;;9.20;;
21894;SDS011;11112;51.270;7.224;2023-03-01T14:33:04;13.73;;;8.55;;
21894;SDS011;11112;51.270;7.224;2023-03-01T14:35:51;14.80;;;8.10;;
21894;SDS011;11112;51.270;7.224;2023-03-01T14:38:31;13.90;;;8.48;;
21894;SDS011;11112;51.270;7.224;2023-03-01T14:41:03;13.48;;;7.85;;
21894;SDS011;11112;51.270;7.224;2023-03-01T14:43:33;15.98;;;7.97;;
21894;SDS011;11112;51.270;7.224;2023-03-01T14:46:02;15.23;;;7.15;;
21894;SDS011;11112;51.270;7.224;2023-03-01T14:48:30;13.73;;;7.85;;
21894;SDS011;11112;51.270;7.224;2023-03-01T14:50:58;12.63;;;7.78;;
21894;SDS011;11112;51.270;7.224;2023-03-01T14:53:27;14.02;;;8.20;;
21894;SDS011;11112;51.270;7.224;2023-03-01T14:55:59;13.88;;;8.20;;
21894;SDS011;11112;51.270;7.224;2023-03-01T14:58:31;19.27;;;7.87;;
21894;SDS011;11112;51.270;7.224;2023-03-01T15:01:00;13.90;;;7.70;;
21894;SDS011;11112;51.270;7.224;2023-03-01T15:03:31;13.68;;;8.00;;
21894;SDS011;11112;51.270;7.224;2023-03-01T15:06:03;13.98;;;8.15;;
21894;SDS011;11112;51.270;7.224;2023-03-01T15:08:32;13.65;;;8.38;;
21894;SDS011;11112;51.270;7.224;2023-03-01T15:11:04;18.02;;;7.88;;
21894;SDS011;11112;51.270;7.224;2023-03-01T15:13:43;15.00;;;8.70;;
21894;SDS011;11112;51.270;7.224;2023-03-01T15:16:12;14.15;;;8.13;;
21894;SDS011;11112;51.270;7.224;2023-03-01T15:18:43;13.73;;;7.80;;
21894;SDS011;11112;51.270;7.224;2023-03-01T15:21:16;14.85;;;8.23;;
21894;SDS011;11112;51.270;7.224;2023-03-01T15:23:48;13.88;;;8.32;;
21894;SDS011;11112;51.270;7.224;2023-03-01T15:26:24;12.70;;;7.60;;